I63

Mount Sterling Municipal Airport

Mount Sterling, Illinois, USA
METAR KI63 191315Z AUTO 17006KT 10SM CLR 02/M01 A2986 RMK AO2 T00171015
Observed Flight Rules
Dec-19 @ 13:15 UTC (24 minutes ago) Visual Flight Rules
Wind Visibility Clouds
170° at 6 knots 10 miles
  • Clear skies
Temperatures Readings
Current 2°C / 36°F
Dewpoint -2°C / 28°F
Humidity 75%
Altimeter 29.86" Hg
Pressure 1011 hPa
Elevation 223
METAR KI63 191315Z AUTO 17006KT 10SM CLR 02/M01 A2986 RMK AO2 T00171015
Observed Flight Rules
Dec-19 @ 13:15 UTC
(24 minutes ago)
VFR
Wind Visibility
170° at 6 knots 10 miles
Clouds
  • Clear skies
Temperature Dewpoint
2°C / 36°F -2°C / 28°F
Humidity Altimeter Pressure
75% 29.86" Hg 1011 hPa